sensor_id;sensor_type;location;lat;lon;timestamp;P1;durP1;ratioP1;P2;durP2;ratioP2
253;SDS011;590;48.772;8.846;2022-10-17T00:00:20;3.00;;;2.80;;
253;SDS011;590;48.772;8.846;2022-10-17T00:02:47;7.43;;;3.13;;
253;SDS011;590;48.772;8.846;2022-10-17T00:05:15;3.10;;;2.90;;
253;SDS011;590;48.772;8.846;2022-10-17T00:07:45;4.00;;;3.87;;
253;SDS011;590;48.772;8.846;2022-10-17T00:10:13;3.40;;;3.20;;
253;SDS011;590;48.772;8.846;2022-10-17T00:12:41;4.00;;;3.80;;
253;SDS011;590;48.772;8.846;2022-10-17T00:15:09;3.70;;;3.13;;
253;SDS011;590;48.772;8.846;2022-10-17T00:17:41;5.47;;;3.40;;
253;SDS011;590;48.772;8.846;2022-10-17T00:20:09;3.13;;;2.93;;
253;SDS011;590;48.772;8.846;2022-10-17T00:22:38;3.07;;;2.87;;
253;SDS011;590;48.772;8.846;2022-10-17T00:25:10;4.13;;;3.73;;
253;SDS011;590;48.772;8.846;2022-10-17T00:27:39;3.80;;;3.63;;
253;SDS011;590;48.772;8.846;2022-10-17T00:30:09;3.60;;;3.40;;
253;SDS011;590;48.772;8.846;2022-10-17T00:32:39;3.20;;;3.00;;
253;SDS011;590;48.772;8.846;2022-10-17T00:35:08;3.57;;;3.37;;
253;SDS011;590;48.772;8.846;2022-10-17T00:37:37;4.53;;;3.23;;
253;SDS011;590;48.772;8.846;2022-10-17T00:40:05;3.50;;;3.10;;
253;SDS011;590;48.772;8.846;2022-10-17T00:42:35;3.30;;;3.10;;
253;SDS011;590;48.772;8.846;2022-10-17T00:45:12;4.00;;;3.40;;
253;SDS011;590;48.772;8.846;2022-10-17T00:47:44;3.87;;;3.20;;
253;SDS011;590;48.772;8.846;2022-10-17T00:50:17;3.97;;;3.77;;
253;SDS011;590;48.772;8.846;2022-10-17T00:52:46;5.20;;;3.07;;
253;SDS011;590;48.772;8.846;2022-10-17T00:55:16;3.50;;;3.30;;
253;SDS011;590;48.772;8.846;2022-10-17T00:57:49;3.53;;;3.33;;
253;SDS011;590;48.772;8.846;2022-10-17T01:00:18;3.53;;;3.33;;
253;SDS011;590;48.772;8.846;2022-10-17T01:02:47;3.20;;;3.00;;
253;SDS011;590;48.772;8.846;2022-10-17T01:05:15;3.43;;;3.23;;
253;SDS011;590;48.772;8.846;2022-10-17T01:07:44;2.90;;;2.63;;
253;SDS011;590;48.772;8.846;2022-10-17T01:10:14;3.00;;;2.80;;
253;SDS011;590;48.772;8.846;2022-10-17T01:12:45;4.20;;;3.03;;
253;SDS011;590;48.772;8.846;2022-10-17T01:15:28;4.20;;;3.00;;
253;SDS011;590;48.772;8.846;2022-10-17T01:18:08;5.17;;;3.40;;
253;SDS011;590;48.772;8.846;2022-10-17T01:20:53;4.73;;;3.30;;
253;SDS011;590;48.772;8.846;2022-10-17T01:23:47;3.27;;;3.07;;
253;SDS011;590;48.772;8.846;2022-10-17T01:26:35;3.10;;;2.90;;
253;SDS011;590;48.772;8.846;2022-10-17T01:29:28;3.30;;;3.10;;
253;SDS011;590;48.772;8.846;2022-10-17T01:32:10;3.40;;;2.80;;
253;SDS011;590;48.772;8.846;2022-10-17T01:34:44;3.80;;;3.60;;
253;SDS011;590;48.772;8.846;2022-10-17T01:37:17;3.17;;;2.97;;
253;SDS011;590;48.772;8.846;2022-10-17T01:39:55;2.90;;;2.63;;
253;SDS011;590;48.772;8.846;2022-10-17T01:42:32;3.30;;;3.10;;
253;SDS011;590;48.772;8.846;2022-10-17T01:45:05;6.43;;;3.47;;
253;SDS011;590;48.772;8.846;2022-10-17T01:47:38;3.30;;;3.10;;
253;SDS011;590;48.772;8.846;2022-10-17T01:50:09;4.03;;;3.03;;
253;SDS011;590;48.772;8.846;2022-10-17T01:52:42;3.10;;;2.90;;
253;SDS011;590;48.772;8.846;2022-10-17T01:55:14;4.70;;;3.60;;
253;SDS011;590;48.772;8.846;2022-10-17T01:57:47;3.00;;;2.80;;
253;SDS011;590;48.772;8.846;2022-10-17T02:00:18;4.70;;;3.03;;
253;SDS011;590;48.772;8.846;2022-10-17T02:02:51;4.13;;;2.93;;
253;SDS011;590;48.772;8.846;2022-10-17T02:05:23;6.00;;;3.80;;
253;SDS011;590;48.772;8.846;2022-10-17T02:07:54;3.13;;;3.03;;
253;SDS011;590;48.772;8.846;2022-10-17T02:10:24;5.07;;;2.97;;
253;SDS011;590;48.772;8.846;2022-10-17T02:13:00;3.70;;;3.50;;
253;SDS011;590;48.772;8.846;2022-10-17T02:15:42;3.40;;;3.20;;
253;SDS011;590;48.772;8.846;2022-10-17T02:18:29;3.20;;;3.03;;
253;SDS011;590;48.772;8.846;2022-10-17T02:21:09;3.57;;;2.80;;
253;SDS011;590;48.772;8.846;2022-10-17T02:23:46;3.37;;;3.20;;
253;SDS011;590;48.772;8.846;2022-10-17T02:26:20;3.63;;;3.43;;
253;SDS011;590;48.772;8.846;2022-10-17T02:28:57;6.40;;;3.73;;
253;SDS011;590;48.772;8.846;2022-10-17T02:31:33;3.80;;;3.20;;
253;SDS011;590;48.772;8.846;2022-10-17T02:34:08;3.30;;;3.10;;
253;SDS011;590;48.772;8.846;2022-10-17T02:36:42;3.30;;;3.10;;
253;SDS011;590;48.772;8.846;2022-10-17T02:39:13;4.17;;;3.40;;
253;SDS011;590;48.772;8.846;2022-10-17T02:41:42;3.00;;;2.80;;
253;SDS011;590;48.772;8.846;2022-10-17T02:44:11;3.77;;;3.20;;
253;SDS011;590;48.772;8.846;2022-10-17T02:46:40;3.23;;;3.03;;
253;SDS011;590;48.772;8.846;2022-10-17T02:49:14;3.17;;;2.97;;
253;SDS011;590;48.772;8.846;2022-10-17T02:51:46;3.30;;;3.10;;
253;SDS011;590;48.772;8.846;2022-10-17T02:54:19;3.97;;;3.27;;
253;SDS011;590;48.772;8.846;2022-10-17T02:56:52;3.90;;;3.70;;
253;SDS011;590;48.772;8.846;2022-10-17T02:59:24;3.93;;;3.77;;
253;SDS011;590;48.772;8.846;2022-10-17T03:01:55;4.57;;;4.00;;
253;SDS011;590;48.772;8.846;2022-10-17T03:04:24;6.30;;;3.60;;
253;SDS011;590;48.772;8.846;2022-10-17T03:06:52;3.53;;;3.33;;
253;SDS011;590;48.772;8.846;2022-10-17T03:09:20;4.03;;;3.10;;
253;SDS011;590;48.772;8.846;2022-10-17T03:11:48;3.77;;;3.57;;
253;SDS011;590;48.772;8.846;2022-10-17T03:14:16;5.23;;;3.60;;
253;SDS011;590;48.772;8.846;2022-10-17T03:16:44;3.53;;;3.33;;
253;SDS011;590;48.772;8.846;2022-10-17T03:19:12;3.53;;;3.37;;
253;SDS011;590;48.772;8.846;2022-10-17T03:21:41;5.93;;;3.83;;
253;SDS011;590;48.772;8.846;2022-10-17T03:24:09;4.20;;;3.03;;
253;SDS011;590;48.772;8.846;2022-10-17T03:26:37;8.03;;;4.60;;
253;SDS011;590;48.772;8.846;2022-10-17T03:29:05;3.50;;;3.20;;
253;SDS011;590;48.772;8.846;2022-10-17T03:31:33;3.07;;;2.93;;
253;SDS011;590;48.772;8.846;2022-10-17T03:34:02;4.80;;;3.90;;
253;SDS011;590;48.772;8.846;2022-10-17T03:36:30;3.67;;;3.47;;
253;SDS011;590;48.772;8.846;2022-10-17T03:38:59;3.10;;;2.90;;
253;SDS011;590;48.772;8.846;2022-10-17T03:41:27;14.87;;;3.90;;
253;SDS011;590;48.772;8.846;2022-10-17T03:43:55;4.43;;;3.30;;
253;SDS011;590;48.772;8.846;2022-10-17T03:46:23;5.03;;;4.10;;
253;SDS011;590;48.772;8.846;2022-10-17T03:48:51;5.70;;;3.73;;
253;SDS011;590;48.772;8.846;2022-10-17T03:51:19;3.33;;;3.20;;
253;SDS011;590;48.772;8.846;2022-10-17T03:53:48;6.53;;;3.30;;
253;SDS011;590;48.772;8.846;2022-10-17T03:56:17;3.50;;;3.30;;
253;SDS011;590;48.772;8.846;2022-10-17T03:58:47;3.83;;;3.40;;
253;SDS011;590;48.772;8.846;2022-10-17T04:01:16;3.70;;;3.50;;
253;SDS011;590;48.772;8.846;2022-10-17T04:03:48;3.13;;;2.93;;
253;SDS011;590;48.772;8.846;2022-10-17T04:06:17;3.43;;;3.23;;
253;SDS011;590;48.772;8.846;2022-10-17T04:08:45;2.83;;;2.70;;
253;SDS011;590;48.772;8.846;2022-10-17T04:11:14;3.03;;;2.83;;
253;SDS011;590;48.772;8.846;2022-10-17T04:13:45;4.20;;;3.17;;
253;SDS011;590;48.772;8.846;2022-10-17T04:16:13;3.10;;;2.90;;
253;SDS011;590;48.772;8.846;2022-10-17T04:18:42;3.97;;;3.77;;
253;SDS011;590;48.772;8.846;2022-10-17T04:21:11;4.30;;;3.60;;
253;SDS011;590;48.772;8.846;2022-10-17T04:23:39;3.87;;;3.60;;
253;SDS011;590;48.772;8.846;2022-10-17T04:26:07;4.47;;;3.40;;
253;SDS011;590;48.772;8.846;2022-10-17T04:28:35;7.43;;;3.47;;
253;SDS011;590;48.772;8.846;2022-10-17T04:31:10;6.73;;;3.63;;
253;SDS011;590;48.772;8.846;2022-10-17T04:33:40;3.43;;;3.10;;
253;SDS011;590;48.772;8.846;2022-10-17T04:36:10;3.60;;;3.40;;
253;SDS011;590;48.772;8.846;2022-10-17T04:38:39;3.80;;;3.60;;
253;SDS011;590;48.772;8.846;2022-10-17T04:41:09;3.60;;;3.40;;
253;SDS011;590;48.772;8.846;2022-10-17T04:43:38;4.60;;;3.27;;
253;SDS011;590;48.772;8.846;2022-10-17T04:46:13;4.67;;;3.40;;
253;SDS011;590;48.772;8.846;2022-10-17T04:48:42;5.33;;;3.47;;
253;SDS011;590;48.772;8.846;2022-10-17T04:51:11;3.03;;;2.87;;
253;SDS011;590;48.772;8.846;2022-10-17T04:53:41;4.00;;;3.60;;
253;SDS011;590;48.772;8.846;2022-10-17T04:56:10;4.37;;;3.50;;
253;SDS011;590;48.772;8.846;2022-10-17T04:58:39;3.47;;;3.27;;
253;SDS011;590;48.772;8.846;2022-10-17T05:01:09;4.90;;;3.53;;
253;SDS011;590;48.772;8.846;2022-10-17T05:03:40;3.90;;;3.70;;
253;SDS011;590;48.772;8.846;2022-10-17T05:06:08;4.40;;;4.10;;
253;SDS011;590;48.772;8.846;2022-10-17T05:08:38;5.30;;;4.23;;
253;SDS011;590;48.772;8.846;2022-10-17T05:11:13;3.60;;;3.40;;
253;SDS011;590;48.772;8.846;2022-10-17T05:13:48;4.10;;;3.90;;
253;SDS011;590;48.772;8.846;2022-10-17T05:16:17;4.30;;;3.43;;
253;SDS011;590;48.772;8.846;2022-10-17T05:18:48;5.17;;;3.33;;
253;SDS011;590;48.772;8.846;2022-10-17T05:21:18;4.00;;;3.80;;
253;SDS011;590;48.772;8.846;2022-10-17T05:23:48;3.97;;;3.80;;
253;SDS011;590;48.772;8.846;2022-10-17T05:26:16;3.70;;;3.37;;
253;SDS011;590;48.772;8.846;2022-10-17T05:28:44;4.37;;;3.30;;
253;SDS011;590;48.772;8.846;2022-10-17T05:31:13;3.63;;;3.03;;
253;SDS011;590;48.772;8.846;2022-10-17T05:33:41;5.03;;;3.47;;
253;SDS011;590;48.772;8.846;2022-10-17T05:36:10;3.50;;;3.30;;
253;SDS011;590;48.772;8.846;2022-10-17T05:38:38;3.67;;;3.47;;
253;SDS011;590;48.772;8.846;2022-10-17T05:41:06;4.47;;;4.17;;
253;SDS011;590;48.772;8.846;2022-10-17T05:43:36;4.30;;;4.00;;
253;SDS011;590;48.772;8.846;2022-10-17T05:46:04;4.57;;;4.27;;
253;SDS011;590;48.772;8.846;2022-10-17T05:48:33;5.47;;;5.17;;
253;SDS011;590;48.772;8.846;2022-10-17T05:51:02;6.87;;;6.47;;
253;SDS011;590;48.772;8.846;2022-10-17T05:53:34;7.23;;;6.83;;
253;SDS011;590;48.772;8.846;2022-10-17T05:56:04;5.70;;;5.40;;
253;SDS011;590;48.772;8.846;2022-10-17T05:58:34;6.40;;;6.00;;
253;SDS011;590;48.772;8.846;2022-10-17T06:01:22;5.73;;;5.43;;
253;SDS011;590;48.772;8.846;2022-10-17T06:03:50;8.60;;;6.17;;
253;SDS011;590;48.772;8.846;2022-10-17T06:06:18;5.23;;;4.93;;
253;SDS011;590;48.772;8.846;2022-10-17T06:08:48;4.50;;;4.20;;
253;SDS011;590;48.772;8.846;2022-10-17T06:11:16;5.37;;;5.13;;
253;SDS011;590;48.772;8.846;2022-10-17T06:13:44;5.23;;;4.93;;
253;SDS011;590;48.772;8.846;2022-10-17T06:16:12;4.97;;;4.70;;
253;SDS011;590;48.772;8.846;2022-10-17T06:18:40;4.60;;;4.30;;
253;SDS011;590;48.772;8.846;2022-10-17T06:21:09;4.20;;;3.87;;
253;SDS011;590;48.772;8.846;2022-10-17T06:23:38;4.50;;;4.20;;
253;SDS011;590;48.772;8.846;2022-10-17T06:26:07;4.90;;;4.60;;
253;SDS011;590;48.772;8.846;2022-10-17T06:28:36;5.10;;;4.33;;
253;SDS011;590;48.772;8.846;2022-10-17T06:31:04;5.40;;;3.57;;
253;SDS011;590;48.772;8.846;2022-10-17T06:33:33;4.17;;;3.93;;
253;SDS011;590;48.772;8.846;2022-10-17T06:36:01;4.43;;;4.13;;
253;SDS011;590;48.772;8.846;2022-10-17T06:38:29;4.80;;;4.10;;
253;SDS011;590;48.772;8.846;2022-10-17T06:41:02;4.60;;;4.30;;
253;SDS011;590;48.772;8.846;2022-10-17T06:43:35;5.53;;;4.77;;
253;SDS011;590;48.772;8.846;2022-10-17T06:46:03;3.93;;;3.73;;
253;SDS011;590;48.772;8.846;2022-10-17T06:48:32;5.07;;;4.57;;
253;SDS011;590;48.772;8.846;2022-10-17T06:51:00;4.37;;;4.07;;
253;SDS011;590;48.772;8.846;2022-10-17T06:53:30;4.40;;;4.10;;
253;SDS011;590;48.772;8.846;2022-10-17T06:55:59;4.60;;;4.30;;
253;SDS011;590;48.772;8.846;2022-10-17T06:58:30;5.13;;;4.13;;
253;SDS011;590;48.772;8.846;2022-10-17T07:01:01;4.27;;;4.00;;
253;SDS011;590;48.772;8.846;2022-10-17T07:03:30;4.87;;;4.57;;
253;SDS011;590;48.772;8.846;2022-10-17T07:05:59;4.87;;;4.57;;
253;SDS011;590;48.772;8.846;2022-10-17T07:08:27;3.73;;;3.57;;
253;SDS011;590;48.772;8.846;2022-10-17T07:10:55;4.30;;;4.00;;
253;SDS011;590;48.772;8.846;2022-10-17T07:13:23;4.60;;;4.30;;
253;SDS011;590;48.772;8.846;2022-10-17T07:15:51;7.00;;;4.90;;
253;SDS011;590;48.772;8.846;2022-10-17T07:18:24;5.43;;;4.13;;
253;SDS011;590;48.772;8.846;2022-10-17T07:20:53;5.47;;;5.17;;
253;SDS011;590;48.772;8.846;2022-10-17T07:23:21;4.23;;;3.97;;
253;SDS011;590;48.772;8.846;2022-10-17T07:25:49;4.27;;;3.67;;
253;SDS011;590;48.772;8.846;2022-10-17T07:28:18;4.33;;;4.03;;
253;SDS011;590;48.772;8.846;2022-10-17T07:30:46;4.07;;;3.83;;
253;SDS011;590;48.772;8.846;2022-10-17T07:33:19;4.30;;;4.00;;
253;SDS011;590;48.772;8.846;2022-10-17T07:35:49;7.10;;;4.93;;
253;SDS011;590;48.772;8.846;2022-10-17T07:38:18;4.53;;;4.00;;
253;SDS011;590;48.772;8.846;2022-10-17T07:40:52;4.53;;;4.23;;
253;SDS011;590;48.772;8.846;2022-10-17T07:43:20;5.20;;;4.57;;
253;SDS011;590;48.772;8.846;2022-10-17T07:45:49;4.23;;;3.97;;
253;SDS011;590;48.772;8.846;2022-10-17T07:48:17;4.57;;;3.80;;
253;SDS011;590;48.772;8.846;2022-10-17T07:50:46;4.37;;;3.67;;
253;SDS011;590;48.772;8.846;2022-10-17T07:53:15;3.63;;;3.43;;
253;SDS011;590;48.772;8.846;2022-10-17T07:55:44;3.33;;;3.13;;
253;SDS011;590;48.772;8.846;2022-10-17T07:58:13;3.77;;;3.10;;
253;SDS011;590;48.772;8.846;2022-10-17T08:00:41;2.93;;;2.73;;
253;SDS011;590;48.772;8.846;2022-10-17T08:03:14;3.30;;;3.10;;
253;SDS011;590;48.772;8.846;2022-10-17T08:05:41;5.93;;;3.50;;
253;SDS011;590;48.772;8.846;2022-10-17T08:08:09;3.70;;;3.20;;
253;SDS011;590;48.772;8.846;2022-10-17T08:10:39;3.90;;;3.73;;
253;SDS011;590;48.772;8.846;2022-10-17T08:13:07;4.63;;;4.17;;
253;SDS011;590;48.772;8.846;2022-10-17T08:15:35;2.90;;;2.70;;
253;SDS011;590;48.772;8.846;2022-10-17T08:18:05;4.27;;;3.37;;
253;SDS011;590;48.772;8.846;2022-10-17T08:20:33;3.40;;;3.20;;
253;SDS011;590;48.772;8.846;2022-10-17T08:23:01;3.67;;;3.50;;
253;SDS011;590;48.772;8.846;2022-10-17T08:25:28;5.10;;;3.53;;
253;SDS011;590;48.772;8.846;2022-10-17T08:27:58;3.37;;;3.00;;
253;SDS011;590;48.772;8.846;2022-10-17T08:30:26;3.77;;;2.70;;
253;SDS011;590;48.772;8.846;2022-10-17T08:32:55;12.80;;;11.80;;
253;SDS011;590;48.772;8.846;2022-10-17T08:35:23;9.10;;;8.60;;
253;SDS011;590;48.772;8.846;2022-10-17T08:37:51;5.23;;;4.93;;
253;SDS011;590;48.772;8.846;2022-10-17T08:40:20;2.93;;;2.73;;
253;SDS011;590;48.772;8.846;2022-10-17T08:42:59;3.70;;;2.50;;
253;SDS011;590;48.772;8.846;2022-10-17T08:45:43;3.23;;;2.77;;
253;SDS011;590;48.772;8.846;2022-10-17T08:48:15;2.47;;;2.27;;
253;SDS011;590;48.772;8.846;2022-10-17T08:50:47;2.50;;;2.30;;
253;SDS011;590;48.772;8.846;2022-10-17T08:53:19;2.70;;;2.07;;
253;SDS011;590;48.772;8.846;2022-10-17T08:55:52;3.10;;;2.57;;
253;SDS011;590;48.772;8.846;2022-10-17T08:58:23;2.83;;;2.63;;
253;SDS011;590;48.772;8.846;2022-10-17T09:00:57;4.63;;;2.57;;
253;SDS011;590;48.772;8.846;2022-10-17T09:03:39;2.70;;;2.50;;
253;SDS011;590;48.772;8.846;2022-10-17T09:06:20;2.47;;;2.27;;
253;SDS011;590;48.772;8.846;2022-10-17T09:09:02;3.00;;;2.70;;
253;SDS011;590;48.772;8.846;2022-10-17T09:11:53;2.47;;;2.30;;
253;SDS011;590;48.772;8.846;2022-10-17T09:14:33;3.97;;;2.50;;
253;SDS011;590;48.772;8.846;2022-10-17T09:17:13;2.60;;;2.13;;
253;SDS011;590;48.772;8.846;2022-10-17T09:19:50;2.60;;;2.50;;
253;SDS011;590;48.772;8.846;2022-10-17T09:22:24;2.80;;;2.50;;
253;SDS011;590;48.772;8.846;2022-10-17T09:24:57;2.70;;;2.50;;
253;SDS011;590;48.772;8.846;2022-10-17T09:27:31;2.70;;;2.50;;
253;SDS011;590;48.772;8.846;2022-10-17T09:30:13;2.40;;;2.23;;
253;SDS011;590;48.772;8.846;2022-10-17T09:33:09;2.50;;;2.30;;
253;SDS011;590;48.772;8.846;2022-10-17T09:35:59;2.53;;;2.33;;
253;SDS011;590;48.772;8.846;2022-10-17T09:38:30;3.27;;;2.77;;
253;SDS011;590;48.772;8.846;2022-10-17T09:41:04;2.90;;;2.43;;
253;SDS011;590;48.772;8.846;2022-10-17T09:44:06;3.90;;;2.13;;
253;SDS011;590;48.772;8.846;2022-10-17T09:46:42;1.93;;;1.90;;
253;SDS011;590;48.772;8.846;2022-10-17T09:49:20;3.27;;;1.87;;
253;SDS011;590;48.772;8.846;2022-10-17T09:51:51;2.60;;;2.30;;
253;SDS011;590;48.772;8.846;2022-10-17T09:54:21;3.10;;;2.60;;
253;SDS011;590;48.772;8.846;2022-10-17T09:56:55;2.60;;;2.40;;
253;SDS011;590;48.772;8.846;2022-10-17T09:59:32;2.93;;;2.43;;
253;SDS011;590;48.772;8.846;2022-10-17T10:02:12;2.83;;;2.00;;
253;SDS011;590;48.772;8.846;2022-10-17T10:04:56;2.80;;;2.60;;
253;SDS011;590;48.772;8.846;2022-10-17T10:07:32;2.47;;;2.27;;
253;SDS011;590;48.772;8.846;2022-10-17T10:10:02;4.27;;;2.40;;
253;SDS011;590;48.772;8.846;2022-10-17T10:12:33;1.90;;;1.80;;
253;SDS011;590;48.772;8.846;2022-10-17T10:15:10;2.50;;;1.93;;
253;SDS011;590;48.772;8.846;2022-10-17T10:17:58;2.60;;;1.70;;
253;SDS011;590;48.772;8.846;2022-10-17T10:20:28;2.10;;;1.50;;
253;SDS011;590;48.772;8.846;2022-10-17T10:23:05;3.77;;;2.53;;
253;SDS011;590;48.772;8.846;2022-10-17T10:25:37;2.80;;;1.90;;
253;SDS011;590;48.772;8.846;2022-10-17T10:28:15;2.23;;;2.03;;
253;SDS011;590;48.772;8.846;2022-10-17T10:30:46;2.93;;;2.33;;
253;SDS011;590;48.772;8.846;2022-10-17T10:33:19;3.80;;;2.27;;
253;SDS011;590;48.772;8.846;2022-10-17T10:35:52;2.47;;;2.27;;
253;SDS011;590;48.772;8.846;2022-10-17T10:38:23;2.60;;;2.40;;
253;SDS011;590;48.772;8.846;2022-10-17T10:40:52;6.73;;;1.77;;
253;SDS011;590;48.772;8.846;2022-10-17T10:43:23;2.30;;;1.93;;
253;SDS011;590;48.772;8.846;2022-10-17T10:45:58;3.23;;;2.13;;
253;SDS011;590;48.772;8.846;2022-10-17T10:48:29;3.27;;;1.93;;
253;SDS011;590;48.772;8.846;2022-10-17T10:51:01;3.73;;;2.73;;
253;SDS011;590;48.772;8.846;2022-10-17T10:53:37;2.27;;;2.07;;
253;SDS011;590;48.772;8.846;2022-10-17T10:56:12;2.97;;;2.10;;
253;SDS011;590;48.772;8.846;2022-10-17T10:58:49;2.00;;;1.90;;
253;SDS011;590;48.772;8.846;2022-10-17T11:01:22;2.53;;;2.33;;
253;SDS011;590;48.772;8.846;2022-10-17T11:06:51;3.10;;;1.93;;
253;SDS011;590;48.772;8.846;2022-10-17T11:09:23;2.13;;;1.73;;
253;SDS011;590;48.772;8.846;2022-10-17T11:12:00;2.13;;;2.00;;
253;SDS011;590;48.772;8.846;2022-10-17T11:14:37;3.43;;;2.00;;
253;SDS011;590;48.772;8.846;2022-10-17T11:17:15;2.37;;;2.10;;
253;SDS011;590;48.772;8.846;2022-10-17T11:19:55;2.67;;;1.77;;
253;SDS011;590;48.772;8.846;2022-10-17T11:22:30;2.40;;;2.20;;
253;SDS011;590;48.772;8.846;2022-10-17T11:25:03;2.20;;;2.00;;
253;SDS011;590;48.772;8.846;2022-10-17T11:27:36;2.23;;;1.80;;
253;SDS011;590;48.772;8.846;2022-10-17T11:30:05;2.50;;;1.80;;
253;SDS011;590;48.772;8.846;2022-10-17T11:32:39;2.43;;;1.83;;
253;SDS011;590;48.772;8.846;2022-10-17T11:35:15;3.07;;;1.73;;
253;SDS011;590;48.772;8.846;2022-10-17T11:37:48;1.83;;;1.73;;
253;SDS011;590;48.772;8.846;2022-10-17T11:40:20;1.93;;;1.87;;
253;SDS011;590;48.772;8.846;2022-10-17T11:42:56;3.00;;;2.03;;
253;SDS011;590;48.772;8.846;2022-10-17T11:45:27;2.70;;;1.97;;
253;SDS011;590;48.772;8.846;2022-10-17T11:48:00;3.13;;;2.27;;
253;SDS011;590;48.772;8.846;2022-10-17T11:50:34;1.53;;;1.53;;
253;SDS011;590;48.772;8.846;2022-10-17T11:53:24;2.90;;;1.80;;
253;SDS011;590;48.772;8.846;2022-10-17T11:55:56;2.33;;;1.67;;
253;SDS011;590;48.772;8.846;2022-10-17T11:58:28;2.60;;;1.70;;
253;SDS011;590;48.772;8.846;2022-10-17T12:01:06;4.20;;;2.50;;
253;SDS011;590;48.772;8.846;2022-10-17T12:03:45;2.17;;;1.70;;
253;SDS011;590;48.772;8.846;2022-10-17T12:06:27;1.90;;;1.53;;
253;SDS011;590;48.772;8.846;2022-10-17T12:09:06;1.73;;;1.60;;
253;SDS011;590;48.772;8.846;2022-10-17T12:11:45;2.83;;;2.20;;
253;SDS011;590;48.772;8.846;2022-10-17T12:14:39;2.97;;;1.30;;
253;SDS011;590;48.772;8.846;2022-10-17T12:17:21;1.70;;;1.60;;
253;SDS011;590;48.772;8.846;2022-10-17T12:22:54;1.60;;;1.50;;
253;SDS011;590;48.772;8.846;2022-10-17T12:25:25;1.90;;;1.80;;
253;SDS011;590;48.772;8.846;2022-10-17T12:28:13;3.50;;;1.47;;
253;SDS011;590;48.772;8.846;2022-10-17T12:30:53;1.37;;;1.27;;
253;SDS011;590;48.772;8.846;2022-10-17T12:33:26;1.80;;;1.60;;
253;SDS011;590;48.772;8.846;2022-10-17T12:42:43;2.40;;;2.20;;
253;SDS011;590;48.772;8.846;2022-10-17T12:51:28;2.60;;;2.40;;
253;SDS011;590;48.772;8.846;2022-10-17T12:54:09;2.87;;;2.43;;
253;SDS011;590;48.772;8.846;2022-10-17T12:56:40;4.23;;;2.30;;
253;SDS011;590;48.772;8.846;2022-10-17T12:59:13;2.63;;;2.43;;
253;SDS011;590;48.772;8.846;2022-10-17T13:01:44;2.47;;;1.97;;
253;SDS011;590;48.772;8.846;2022-10-17T13:04:14;3.60;;;2.60;;
253;SDS011;590;48.772;8.846;2022-10-17T13:06:44;2.00;;;1.90;;
253;SDS011;590;48.772;8.846;2022-10-17T13:09:17;3.87;;;2.23;;
253;SDS011;590;48.772;8.846;2022-10-17T13:11:50;2.03;;;1.70;;
253;SDS011;590;48.772;8.846;2022-10-17T13:14:21;2.17;;;2.00;;
253;SDS011;590;48.772;8.846;2022-10-17T13:16:51;2.73;;;2.53;;
253;SDS011;590;48.772;8.846;2022-10-17T13:19:21;1.83;;;1.73;;
253;SDS011;590;48.772;8.846;2022-10-17T13:21:51;1.60;;;1.50;;
253;SDS011;590;48.772;8.846;2022-10-17T13:24:22;2.57;;;2.10;;
253;SDS011;590;48.772;8.846;2022-10-17T13:26:55;1.77;;;1.57;;
253;SDS011;590;48.772;8.846;2022-10-17T13:29:24;3.20;;;2.40;;
253;SDS011;590;48.772;8.846;2022-10-17T13:31:55;3.20;;;2.03;;
253;SDS011;590;48.772;8.846;2022-10-17T13:34:26;2.53;;;2.20;;
253;SDS011;590;48.772;8.846;2022-10-17T13:36:55;2.37;;;2.17;;
253;SDS011;590;48.772;8.846;2022-10-17T13:39:26;1.90;;;1.80;;
253;SDS011;590;48.772;8.846;2022-10-17T13:42:23;2.83;;;2.30;;
253;SDS011;590;48.772;8.846;2022-10-17T13:44:58;2.13;;;1.90;;
253;SDS011;590;48.772;8.846;2022-10-17T13:47:27;2.53;;;2.40;;
253;SDS011;590;48.772;8.846;2022-10-17T13:49:58;2.00;;;1.90;;
253;SDS011;590;48.772;8.846;2022-10-17T13:52:27;2.73;;;2.27;;
253;SDS011;590;48.772;8.846;2022-10-17T13:55:05;2.40;;;2.10;;
253;SDS011;590;48.772;8.846;2022-10-17T13:57:37;2.83;;;1.80;;
253;SDS011;590;48.772;8.846;2022-10-17T14:00:10;5.23;;;2.30;;
253;SDS011;590;48.772;8.846;2022-10-17T14:02:45;4.20;;;2.23;;
253;SDS011;590;48.772;8.846;2022-10-17T14:05:15;3.60;;;2.20;;
253;SDS011;590;48.772;8.846;2022-10-17T14:07:48;2.10;;;1.90;;
253;SDS011;590;48.772;8.846;2022-10-17T14:10:37;2.23;;;2.03;;
253;SDS011;590;48.772;8.846;2022-10-17T14:13:06;2.23;;;2.03;;
253;SDS011;590;48.772;8.846;2022-10-17T14:15:46;2.03;;;1.90;;
253;SDS011;590;48.772;8.846;2022-10-17T14:18:16;3.30;;;1.90;;
253;SDS011;590;48.772;8.846;2022-10-17T14:20:46;2.23;;;2.03;;
253;SDS011;590;48.772;8.846;2022-10-17T14:23:36;5.97;;;2.50;;
253;SDS011;590;48.772;8.846;2022-10-17T14:26:13;5.30;;;2.70;;
253;SDS011;590;48.772;8.846;2022-10-17T14:28:43;1.93;;;1.83;;
253;SDS011;590;48.772;8.846;2022-10-17T14:31:22;2.00;;;1.90;;
253;SDS011;590;48.772;8.846;2022-10-17T14:33:55;2.53;;;2.33;;
253;SDS011;590;48.772;8.846;2022-10-17T14:36:30;2.33;;;1.83;;
253;SDS011;590;48.772;8.846;2022-10-17T14:39:01;3.67;;;2.30;;
253;SDS011;590;48.772;8.846;2022-10-17T14:41:34;2.67;;;2.47;;
253;SDS011;590;48.772;8.846;2022-10-17T14:44:14;4.00;;;2.60;;
253;SDS011;590;48.772;8.846;2022-10-17T14:46:49;6.67;;;2.70;;
253;SDS011;590;48.772;8.846;2022-10-17T14:49:23;2.87;;;2.67;;
253;SDS011;590;48.772;8.846;2022-10-17T14:52:11;2.33;;;2.13;;
253;SDS011;590;48.772;8.846;2022-10-17T14:54:49;2.80;;;2.03;;
253;SDS011;590;48.772;8.846;2022-10-17T14:57:18;2.70;;;2.13;;
253;SDS011;590;48.772;8.846;2022-10-17T14:59:50;3.80;;;2.57;;
253;SDS011;590;48.772;8.846;2022-10-17T15:02:22;2.70;;;2.20;;
253;SDS011;590;48.772;8.846;2022-10-17T15:04:50;2.20;;;2.00;;
253;SDS011;590;48.772;8.846;2022-10-17T15:07:19;3.50;;;1.90;;
253;SDS011;590;48.772;8.846;2022-10-17T15:09:48;2.07;;;1.80;;
253;SDS011;590;48.772;8.846;2022-10-17T15:12:17;2.53;;;2.20;;
253;SDS011;590;48.772;8.846;2022-10-17T15:14:52;3.80;;;2.33;;
253;SDS011;590;48.772;8.846;2022-10-17T15:17:22;3.63;;;1.90;;
253;SDS011;590;48.772;8.846;2022-10-17T15:19:52;4.90;;;1.87;;
253;SDS011;590;48.772;8.846;2022-10-17T15:22:21;3.27;;;2.30;;
253;SDS011;590;48.772;8.846;2022-10-17T15:24:49;3.00;;;2.47;;
253;SDS011;590;48.772;8.846;2022-10-17T15:27:18;2.40;;;2.17;;
253;SDS011;590;48.772;8.846;2022-10-17T15:29:46;1.90;;;1.80;;
253;SDS011;590;48.772;8.846;2022-10-17T15:32:14;3.67;;;2.30;;
253;SDS011;590;48.772;8.846;2022-10-17T15:34:44;1.90;;;1.80;;
253;SDS011;590;48.772;8.846;2022-10-17T15:37:14;3.13;;;1.90;;
253;SDS011;590;48.772;8.846;2022-10-17T15:39:47;2.50;;;1.80;;
253;SDS011;590;48.772;8.846;2022-10-17T15:42:19;3.70;;;3.10;;
253;SDS011;590;48.772;8.846;2022-10-17T15:44:48;4.20;;;3.20;;
253;SDS011;590;48.772;8.846;2022-10-17T15:47:18;3.70;;;2.50;;
253;SDS011;590;48.772;8.846;2022-10-17T15:49:52;4.80;;;2.87;;
253;SDS011;590;48.772;8.846;2022-10-17T15:52:21;3.13;;;3.03;;
253;SDS011;590;48.772;8.846;2022-10-17T15:54:49;2.53;;;2.33;;
253;SDS011;590;48.772;8.846;2022-10-17T15:57:19;3.40;;;2.97;;
253;SDS011;590;48.772;8.846;2022-10-17T15:59:49;3.23;;;2.93;;
253;SDS011;590;48.772;8.846;2022-10-17T16:02:18;5.80;;;3.20;;
253;SDS011;590;48.772;8.846;2022-10-17T16:04:48;3.80;;;2.73;;
253;SDS011;590;48.772;8.846;2022-10-17T16:07:19;4.50;;;3.90;;
253;SDS011;590;48.772;8.846;2022-10-17T16:09:47;3.33;;;3.13;;
253;SDS011;590;48.772;8.846;2022-10-17T16:12:16;3.50;;;3.20;;
253;SDS011;590;48.772;8.846;2022-10-17T16:14:45;6.37;;;3.40;;
253;SDS011;590;48.772;8.846;2022-10-17T16:17:14;2.93;;;2.73;;
253;SDS011;590;48.772;8.846;2022-10-17T16:19:43;5.20;;;2.70;;
253;SDS011;590;48.772;8.846;2022-10-17T16:22:23;3.30;;;3.10;;
253;SDS011;590;48.772;8.846;2022-10-17T16:24:57;2.90;;;2.70;;
253;SDS011;590;48.772;8.846;2022-10-17T16:27:33;3.00;;;2.80;;
253;SDS011;590;48.772;8.846;2022-10-17T16:30:02;4.17;;;3.00;;
253;SDS011;590;48.772;8.846;2022-10-17T16:32:31;4.37;;;3.97;;
253;SDS011;590;48.772;8.846;2022-10-17T16:34:59;4.90;;;4.60;;